createdAt,value
2022-08-05T00:00:50.308Z,24.90
2022-08-05T00:03:17.643Z,24.80
2022-08-05T00:06:04.737Z,24.80
2022-08-05T00:08:35.492Z,24.80
2022-08-05T00:11:23.845Z,24.80
2022-08-05T00:13:56.939Z,24.80
2022-08-05T00:16:36.485Z,24.70
2022-08-05T00:19:11.403Z,24.70
2022-08-05T00:21:38.512Z,24.60
2022-08-05T00:24:10.903Z,24.60
2022-08-05T00:26:39.146Z,24.60
2022-08-05T00:29:17.864Z,24.60
2022-08-05T00:32:11.078Z,24.50
2022-08-05T00:34:56.344Z,24.50
2022-08-05T00:37:20.142Z,24.50
2022-08-05T00:39:57.895Z,24.40
2022-08-05T00:42:35.368Z,24.40
2022-08-05T00:45:05.812Z,24.30
2022-08-05T00:47:57.266Z,24.20
2022-08-05T00:50:25.521Z,24.20
2022-08-05T00:52:54.886Z,24.10
2022-08-05T00:55:22.686Z,23.90
2022-08-05T00:57:58.179Z,23.80
2022-08-05T01:00:30.917Z,23.80
2022-08-05T01:02:59.691Z,23.70
2022-08-05T01:05:27.785Z,23.70
2022-08-05T01:08:40.931Z,23.70
2022-08-05T01:10:52.454Z,23.60
2022-08-05T01:13:57.997Z,23.60
2022-08-05T01:16:39.261Z,23.60
2022-08-05T01:19:20.318Z,23.60
2022-08-05T01:22:23.925Z,23.60
2022-08-05T01:25:21.448Z,23.50
2022-08-05T01:27:55.701Z,23.50
2022-08-05T01:30:34.332Z,23.50
2022-08-05T01:33:08.380Z,23.50
2022-08-05T01:35:52.239Z,23.40
2022-08-05T01:38:27.156Z,23.40
2022-08-05T01:40:58.881Z,23.40
2022-08-05T01:43:27.962Z,23.40
2022-08-05T01:45:57.693Z,23.40
2022-08-05T01:48:29.604Z,23.40
2022-08-05T01:50:57.714Z,23.40
2022-08-05T01:53:57.401Z,23.40
2022-08-05T01:58:12.249Z,23.40
2022-08-05T01:59:08.322Z,23.30
2022-08-05T02:01:39.953Z,23.30
2022-08-05T02:04:10.232Z,23.30
2022-08-05T02:06:39.342Z,23.30
2022-08-05T02:09:07.768Z,23.20
2022-08-05T02:12:04.128Z,23.20
2022-08-05T02:14:34.270Z,23.20
2022-08-05T02:18:27.608Z,23.00
2022-08-05T02:20:09.038Z,23.00
2022-08-05T02:22:42.363Z,22.80
2022-08-05T02:25:17.043Z,22.80
2022-08-05T02:27:59.093Z,22.70
2022-08-05T02:30:31.067Z,22.70
2022-08-05T02:33:00.273Z,22.70
2022-08-05T02:35:37.692Z,22.60
2022-08-05T02:38:13.385Z,22.60
2022-08-05T02:40:46.994Z,22.70
2022-08-05T02:43:16.855Z,22.60
2022-08-05T02:45:52.912Z,22.70
2022-08-05T02:48:31.215Z,22.60
2022-08-05T02:51:02.801Z,22.70
2022-08-05T02:53:39.580Z,22.60
2022-08-05T02:56:16.152Z,22.60
2022-08-05T02:58:51.479Z,22.60
2022-08-05T03:01:27.271Z,22.60
2022-08-05T03:04:03.170Z,22.50
2022-08-05T03:06:55.501Z,22.50
2022-08-05T03:09:36.172Z,22.50
2022-08-05T03:12:04.786Z,22.50
2022-08-05T03:14:31.774Z,22.50
2022-08-05T03:16:59.169Z,22.40
2022-08-05T03:19:33.222Z,22.40
2022-08-05T03:22:04.960Z,22.40
2022-08-05T03:24:47.203Z,22.30
2022-08-05T03:27:18.985Z,22.30
2022-08-05T03:30:07.346Z,22.20
2022-08-05T03:32:33.587Z,22.20
2022-08-05T03:35:00.912Z,22.10
2022-08-05T03:37:28.049Z,22.10
2022-08-05T03:39:59.235Z,22.00
2022-08-05T03:42:28.937Z,21.90
2022-08-05T03:44:56.987Z,21.80
2022-08-05T03:47:24.594Z,21.80
2022-08-05T03:49:52.532Z,21.80
2022-08-05T03:52:36.958Z,21.70
2022-08-05T03:56:04.164Z,21.70
2022-08-05T03:58:21.988Z,21.70
2022-08-05T04:00:59.995Z,21.70
2022-08-05T04:03:29.348Z,21.70
2022-08-05T04:05:59.046Z,21.60
2022-08-05T04:08:35.026Z,21.60
2022-08-05T04:11:07.549Z,21.60
2022-08-05T04:13:50.155Z,21.60
2022-08-05T04:16:25.020Z,21.60
2022-08-05T04:18:54.807Z,21.70
2022-08-05T04:22:10.163Z,21.60
2022-08-05T04:24:19.502Z,21.60
2022-08-05T04:26:51.032Z,21.60
2022-08-05T04:29:18.216Z,21.60
2022-08-05T04:31:46.997Z,21.60
2022-08-05T04:34:31.548Z,21.60
2022-08-05T04:37:00.712Z,21.50
2022-08-05T04:39:27.964Z,21.50
2022-08-05T04:41:55.433Z,21.50
2022-08-05T04:44:29.489Z,21.50
2022-08-05T04:46:59.166Z,21.50
2022-08-05T04:49:39.082Z,21.50
2022-08-05T04:52:15.174Z,21.60
2022-08-05T04:54:42.393Z,21.60
2022-08-05T04:57:09.449Z,21.60
2022-08-05T04:59:38.516Z,21.60
2022-08-05T05:02:37.540Z,21.70
2022-08-05T05:05:02.229Z,21.70
2022-08-05T05:07:32.491Z,21.70
2022-08-05T05:10:02.154Z,21.70
2022-08-05T05:12:30.065Z,21.70
2022-08-05T05:14:57.070Z,21.80
2022-08-05T05:17:55.872Z,21.80
2022-08-05T05:20:12.950Z,21.80
2022-08-05T05:22:41.154Z,21.90
2022-08-05T05:25:16.765Z,22.00
2022-08-05T05:27:53.617Z,22.00
2022-08-05T05:30:29.203Z,22.10
2022-08-05T05:33:00.377Z,22.10
2022-08-05T05:35:37.892Z,22.10
2022-08-05T05:38:08.899Z,22.10
2022-08-05T05:40:36.712Z,22.10
2022-08-05T05:43:03.820Z,22.10
2022-08-05T05:45:30.860Z,22.10
2022-08-05T05:48:06.762Z,22.00
2022-08-05T05:50:43.934Z,22.00
2022-08-05T05:53:20.804Z,22.00
2022-08-05T05:55:52.198Z,22.00
2022-08-05T05:58:31.990Z,22.00
2022-08-05T06:01:12.575Z,22.00
2022-08-05T06:04:32.797Z,22.00
2022-08-05T06:07:01.410Z,22.00
2022-08-05T06:09:49.156Z,22.10
2022-08-05T06:12:15.833Z,22.20
2022-08-05T06:14:44.540Z,22.30
2022-08-05T06:17:24.309Z,22.40
2022-08-05T06:19:59.064Z,22.50
2022-08-05T06:22:33.806Z,22.60
2022-08-05T06:25:25.322Z,22.70
2022-08-05T06:28:10.718Z,22.80
2022-08-05T06:30:39.338Z,23.00
2022-08-05T06:33:09.978Z,23.00
2022-08-05T06:36:07.089Z,23.10
2022-08-05T06:38:35.682Z,23.10
2022-08-05T06:42:00.872Z,23.30
2022-08-05T06:44:30.181Z,23.40
2022-08-05T06:47:10.374Z,23.50
2022-08-05T06:50:01.172Z,23.60
2022-08-05T06:52:37.780Z,23.70
2022-08-05T06:55:06.455Z,23.80
2022-08-05T06:57:57.676Z,23.80
2022-08-05T07:00:24.487Z,23.90
2022-08-05T07:02:53.649Z,23.90
2022-08-05T07:05:24.623Z,23.90
2022-08-05T07:08:04.011Z,23.90
2022-08-05T07:10:32.735Z,23.90
2022-08-05T07:13:57.130Z,24.00
2022-08-05T07:16:50.970Z,24.00
2022-08-05T07:19:11.057Z,24.10
2022-08-05T07:22:00.361Z,24.20
2022-08-05T07:24:28.554Z,24.30
2022-08-05T07:26:55.752Z,24.40
2022-08-05T07:29:25.520Z,24.50
2022-08-05T07:32:10.181Z,24.60
2022-08-05T07:34:42.042Z,24.70
2022-08-05T07:37:11.565Z,24.70
2022-08-05T07:40:04.041Z,24.80
2022-08-05T07:42:33.454Z,24.80
2022-08-05T07:45:01.479Z,24.90
2022-08-05T07:47:41.968Z,25.00
2022-08-05T07:50:10.113Z,25.10
2022-08-05T07:52:44.319Z,25.30
2022-08-05T07:55:15.932Z,25.40
2022-08-05T07:58:03.140Z,25.60
2022-08-05T08:00:31.162Z,25.60
2022-08-05T08:03:14.921Z,25.70
2022-08-05T08:05:49.473Z,25.80
2022-08-05T08:08:19.746Z,25.90
2022-08-05T08:10:48.699Z,26.00
2022-08-05T08:13:22.142Z,26.10
2022-08-05T08:16:35.296Z,26.30
2022-08-05T08:18:43.465Z,26.50
2022-08-05T08:21:17.862Z,26.60
2022-08-05T08:24:02.806Z,26.80
2022-08-05T08:26:32.081Z,26.90
2022-08-05T08:29:21.756Z,27.00
2022-08-05T08:31:48.387Z,27.10
2022-08-05T08:34:16.737Z,27.20
2022-08-05T08:36:50.578Z,27.30
2022-08-05T08:39:23.630Z,27.40
2022-08-05T08:41:59.574Z,27.50
2022-08-05T08:45:22.227Z,27.60
2022-08-05T08:52:03.069Z,27.90
2022-08-05T08:54:11.168Z,28.10
2022-08-05T08:56:48.572Z,28.20
2022-08-05T08:59:20.844Z,28.20
2022-08-05T09:01:57.533Z,28.20
2022-08-05T09:04:30.674Z,28.30
2022-08-05T09:06:58.741Z,28.40
2022-08-05T09:09:34.650Z,28.50
2022-08-05T09:12:14.428Z,28.80
2022-08-05T09:14:58.131Z,28.90
2022-08-05T09:17:40.989Z,29.10
2022-08-05T09:20:11.527Z,29.40
2022-08-05T09:23:09.271Z,29.60
2022-08-05T09:26:01.240Z,29.90
2022-08-05T09:28:32.641Z,30.10
2022-08-05T09:31:22.252Z,30.40
2022-08-05T09:33:59.111Z,30.70
2022-08-05T09:36:55.945Z,30.90
2022-08-05T09:39:41.200Z,30.90
2022-08-05T09:42:24.491Z,30.80
2022-08-05T09:45:03.382Z,30.70
2022-08-05T09:47:55.556Z,30.70
2022-08-05T09:50:49.686Z,30.60
2022-08-05T09:53:25.895Z,30.60
2022-08-05T09:56:13.159Z,30.50
2022-08-05T09:58:42.018Z,30.60
2022-08-05T10:01:14.965Z,30.70
2022-08-05T10:04:03.241Z,30.60
2022-08-05T10:06:31.978Z,30.60
2022-08-05T10:09:27.278Z,30.70
2022-08-05T10:12:30.183Z,30.90
2022-08-05T10:15:17.263Z,31.10
2022-08-05T10:18:09.319Z,31.20
2022-08-05T10:20:47.814Z,31.40
2022-08-05T10:23:34.431Z,31.60
2022-08-05T10:26:13.912Z,31.80
2022-08-05T10:28:44.978Z,32.00
2022-08-05T10:32:54.813Z,32.10
2022-08-05T10:34:07.150Z,32.30
2022-08-05T10:36:37.653Z,32.20
2022-08-05T10:39:15.021Z,32.20
2022-08-05T10:42:02.566Z,32.20
2022-08-05T10:44:32.324Z,32.30
2022-08-05T10:47:10.129Z,32.20
2022-08-05T10:50:20.631Z,32.00
2022-08-05T10:53:00.032Z,31.80
2022-08-05T10:55:27.817Z,31.80
2022-08-05T10:58:09.565Z,31.70
2022-08-05T11:00:42.239Z,31.60
2022-08-05T11:03:24.893Z,31.50
2022-08-05T11:06:16.135Z,31.40
2022-08-05T11:09:24.163Z,31.30
2022-08-05T11:11:59.691Z,31.20
2022-08-05T11:17:58.650Z,31.50
2022-08-05T11:21:11.653Z,31.70
2022-08-05T11:24:04.559Z,32.00
2022-08-05T11:26:38.924Z,32.30
2022-08-05T11:29:12.996Z,32.40
2022-08-05T11:31:57.044Z,32.40
2022-08-05T11:34:51.969Z,32.50
2022-08-05T11:38:30.028Z,32.70
2022-08-05T11:41:03.674Z,33.00
2022-08-05T11:44:05.061Z,33.20
2022-08-05T11:47:09.184Z,33.30
2022-08-05T11:49:34.062Z,33.30
2022-08-05T11:52:11.494Z,33.40
2022-08-05T11:54:40.739Z,33.40
2022-08-05T11:57:25.809Z,33.40
2022-08-05T11:59:54.585Z,33.40
2022-08-05T12:02:30.134Z,33.30
2022-08-05T12:05:00.851Z,33.30
2022-08-05T12:08:02.662Z,33.20
2022-08-05T12:10:42.867Z,33.10
2022-08-05T12:13:14.629Z,33.10
2022-08-05T12:15:49.890Z,33.30
2022-08-05T12:18:32.858Z,33.50
2022-08-05T12:21:18.997Z,33.70
2022-08-05T12:24:08.351Z,33.90
2022-08-05T12:26:53.482Z,34.20
2022-08-05T12:29:29.146Z,34.40
2022-08-05T12:32:07.606Z,34.60
2022-08-05T12:34:38.539Z,34.70
2022-08-05T12:37:17.525Z,34.80
2022-08-05T12:39:52.331Z,35.00
2022-08-05T12:42:25.383Z,35.20
2022-08-05T12:44:52.701Z,35.10
2022-08-05T12:47:31.059Z,35.00
2022-08-05T12:50:04.464Z,34.80
2022-08-05T12:52:42.244Z,34.90
2022-08-05T12:55:27.443Z,35.00
2022-08-05T12:58:50.933Z,34.70
2022-08-05T13:02:02.061Z,34.70
2022-08-05T13:03:41.525Z,34.80
2022-08-05T13:06:17.626Z,35.10
2022-08-05T13:08:51.740Z,35.30
2022-08-05T13:11:25.525Z,35.10
2022-08-05T13:14:24.902Z,35.00
2022-08-05T13:17:32.018Z,34.80
2022-08-05T13:20:20.302Z,34.80
2022-08-05T13:23:01.824Z,34.70
2022-08-05T13:25:51.707Z,34.60
2022-08-05T13:28:22.609Z,34.70
2022-08-05T13:30:53.155Z,34.70
2022-08-05T13:34:23.188Z,34.70
2022-08-05T13:36:09.628Z,34.20
2022-08-05T13:38:42.094Z,33.70
2022-08-05T13:41:10.984Z,33.50
2022-08-05T13:43:44.366Z,33.60
2022-08-05T13:46:13.791Z,33.80
2022-08-05T13:48:57.908Z,34.10
2022-08-05T13:51:36.639Z,34.20
2022-08-05T13:54:12.266Z,34.40
2022-08-05T13:56:44.937Z,34.30
2022-08-05T13:59:19.582Z,34.30
2022-08-05T14:01:58.337Z,34.30
2022-08-05T14:04:49.738Z,34.20
2022-08-05T14:07:59.741Z,34.30
2022-08-05T14:10:13.345Z,34.30
2022-08-05T14:12:42.802Z,34.10
2022-08-05T14:16:07.676Z,33.90
2022-08-05T14:18:03.939Z,33.50
2022-08-05T14:20:32.827Z,33.30
2022-08-05T14:23:00.396Z,33.20
2022-08-05T14:25:30.123Z,33.00
2022-08-05T14:27:58.484Z,32.90
2022-08-05T14:30:27.711Z,32.70
2022-08-05T14:32:54.999Z,32.60
2022-08-05T14:35:23.918Z,32.30
2022-08-05T14:38:04.701Z,32.20
2022-08-05T14:40:32.416Z,32.00
2022-08-05T14:43:01.102Z,31.90
2022-08-05T14:45:28.146Z,31.70
2022-08-05T14:48:03.475Z,31.70
2022-08-05T14:50:36.122Z,31.60
2022-08-05T14:53:07.872Z,31.50
2022-08-05T14:55:39.625Z,31.30
2022-08-05T14:58:13.672Z,31.20
2022-08-05T15:00:58.786Z,31.10
2022-08-05T15:03:33.959Z,31.00
2022-08-05T15:06:14.851Z,30.90
2022-08-05T15:09:01.123Z,30.80
2022-08-05T15:11:53.067Z,30.80
2022-08-05T15:14:34.963Z,30.70
2022-08-05T15:17:10.032Z,30.70
2022-08-05T15:19:41.718Z,30.50
2022-08-05T15:22:16.190Z,30.40
2022-08-05T15:24:44.427Z,30.30
2022-08-05T15:27:11.746Z,30.30
2022-08-05T15:29:41.880Z,30.30
2022-08-05T15:32:09.316Z,30.20
2022-08-05T15:34:36.441Z,30.20
2022-08-05T15:37:06.925Z,30.20
2022-08-05T15:41:00.099Z,30.10
2022-08-05T15:42:55.890Z,30.00
2022-08-05T15:45:16.751Z,30.00
2022-08-05T15:47:46.504Z,29.90
2022-08-05T15:50:16.054Z,29.80
2022-08-05T15:52:53.517Z,29.80
2022-08-05T15:55:24.997Z,29.70
2022-08-05T15:58:09.342Z,29.50
2022-08-05T16:00:57.038Z,29.30
2022-08-05T16:03:32.825Z,29.10
2022-08-05T16:06:01.397Z,29.00
2022-08-05T16:08:30.724Z,28.90
2022-08-05T16:10:58.852Z,28.70
2022-08-05T16:13:34.290Z,28.50
2022-08-05T16:16:05.545Z,28.30
2022-08-05T16:18:33.197Z,28.00
2022-08-05T16:21:02.694Z,28.00
2022-08-05T16:23:32.867Z,28.00
2022-08-05T16:26:26.239Z,28.10
2022-08-05T16:28:54.702Z,28.00
2022-08-05T16:31:22.077Z,27.90
2022-08-05T16:33:49.895Z,27.90
2022-08-05T16:36:20.472Z,27.90
2022-08-05T16:38:54.704Z,27.90
2022-08-05T16:42:15.216Z,27.90
2022-08-05T16:44:11.653Z,27.80
2022-08-05T16:46:41.219Z,27.70
2022-08-05T16:49:22.613Z,27.60
2022-08-05T16:51:51.078Z,27.50
2022-08-05T16:54:25.838Z,27.40
2022-08-05T16:56:56.051Z,27.30
2022-08-05T16:59:23.390Z,27.20
2022-08-05T17:01:53.837Z,27.00
2022-08-05T17:04:28.207Z,26.90
2022-08-05T17:07:01.196Z,26.70
2022-08-05T17:09:30.032Z,26.70
2022-08-05T17:11:59.758Z,26.70
2022-08-05T17:14:36.810Z,26.60
2022-08-05T17:17:06.853Z,26.60
2022-08-05T17:19:43.888Z,26.50
2022-08-05T17:22:24.640Z,26.40
2022-08-05T17:24:57.257Z,26.30
2022-08-05T17:27:33.664Z,26.20
2022-08-05T17:30:02.483Z,26.10
2022-08-05T17:32:32.193Z,26.00
2022-08-05T17:35:02.047Z,26.00
2022-08-05T17:37:40.546Z,26.00
2022-08-05T17:40:15.684Z,25.90
2022-08-05T17:42:50.859Z,25.80
2022-08-05T17:45:21.244Z,25.70
2022-08-05T17:47:54.486Z,25.70
2022-08-05T17:50:29.526Z,25.70
2022-08-05T17:53:04.979Z,25.60
2022-08-05T17:55:38.511Z,25.50
2022-08-05T17:58:13.580Z,25.40
2022-08-05T18:00:47.775Z,25.30
2022-08-05T18:03:58.612Z,25.20
2022-08-05T18:06:11.997Z,25.10
2022-08-05T18:08:44.711Z,25.10
2022-08-05T18:11:23.663Z,25.10
2022-08-05T18:13:52.175Z,25.00
2022-08-05T18:16:20.624Z,25.00
2022-08-05T18:18:50.062Z,24.80
2022-08-05T18:21:20.017Z,24.70
2022-08-05T18:23:53.886Z,24.50
2022-08-05T18:26:29.619Z,24.40
2022-08-05T18:28:59.766Z,24.40
2022-08-05T18:31:33.156Z,24.30
2022-08-05T18:34:03.882Z,24.20
2022-08-05T18:36:35.441Z,24.20
2022-08-05T18:39:22.435Z,24.20
2022-08-05T18:42:01.235Z,24.20
2022-08-05T18:44:34.777Z,24.10
2022-08-05T18:47:03.922Z,24.10
2022-08-05T18:49:58.163Z,24.00
2022-08-05T18:52:33.684Z,24.00
2022-08-05T18:55:05.482Z,24.00
2022-08-05T18:57:50.326Z,23.90
2022-08-05T19:00:21.046Z,23.90
2022-08-05T19:02:55.737Z,23.80
2022-08-05T19:06:11.483Z,23.80
2022-08-05T19:08:12.114Z,23.80
2022-08-05T19:10:40.648Z,23.80
2022-08-05T19:13:12.302Z,23.70
2022-08-05T19:15:59.347Z,23.60
2022-08-05T19:18:28.865Z,23.60
2022-08-05T19:20:56.142Z,23.60
2022-08-05T19:24:05.544Z,23.50
2022-08-05T19:26:11.372Z,23.40
2022-08-05T19:28:43.186Z,23.30
2022-08-05T19:31:13.420Z,23.30
2022-08-05T19:33:47.902Z,23.20
2022-08-05T19:36:23.002Z,23.10
2022-08-05T19:38:50.017Z,23.00
2022-08-05T19:41:17.015Z,23.00
2022-08-05T19:44:04.837Z,23.00
2022-08-05T19:46:35.232Z,22.90
2022-08-05T19:54:05.234Z,22.90
2022-08-05T19:56:20.646Z,22.80
2022-08-05T19:58:59.243Z,22.80
2022-08-05T20:01:46.250Z,22.60
2022-08-05T20:04:14.187Z,22.60
2022-08-05T20:06:45.986Z,22.50
2022-08-05T20:09:14.462Z,22.40
2022-08-05T20:11:41.653Z,22.40
2022-08-05T20:14:23.500Z,22.30
2022-08-05T20:16:54.676Z,22.30
2022-08-05T20:19:21.722Z,22.20
2022-08-05T20:21:50.118Z,22.00
2022-08-05T20:24:17.120Z,22.00
2022-08-05T20:26:44.890Z,21.90
2022-08-05T20:29:26.801Z,21.80
2022-08-05T20:31:58.171Z,21.80
2022-08-05T20:34:26.624Z,21.70
2022-08-05T20:36:53.758Z,21.60
2022-08-05T20:39:22.644Z,21.50
2022-08-05T20:41:49.782Z,21.40
2022-08-05T20:44:30.556Z,21.30
2022-08-05T20:47:03.189Z,21.20
2022-08-05T20:49:33.232Z,21.10
2022-08-05T20:52:05.520Z,20.90
2022-08-05T20:54:55.241Z,20.90
2022-08-05T20:57:41.985Z,20.80
2022-08-05T21:00:40.727Z,20.80
2022-08-05T21:03:07.366Z,20.70
2022-08-05T21:05:47.955Z,20.70
2022-08-05T21:08:28.193Z,20.60
2022-08-05T21:11:12.149Z,20.50
2022-08-05T21:13:48.131Z,20.40
2022-08-05T21:16:29.849Z,20.30
2022-08-05T21:19:00.327Z,20.20
2022-08-05T21:21:44.262Z,20.10
2022-08-05T21:24:19.474Z,20.00
2022-08-05T21:26:57.942Z,20.00
2022-08-05T21:29:31.758Z,20.00
2022-08-05T21:32:00.681Z,20.00
2022-08-05T21:34:28.333Z,19.90
2022-08-05T21:36:58.909Z,19.80
2022-08-05T21:39:26.742Z,19.80
2022-08-05T21:42:01.894Z,19.70
2022-08-05T21:44:32.775Z,19.60
2022-08-05T21:47:00.624Z,19.50
2022-08-05T21:49:59.500Z,19.40
2022-08-05T21:52:27.403Z,19.40
2022-08-05T21:54:56.076Z,19.40
2022-08-05T21:57:32.089Z,19.20
2022-08-05T22:00:05.993Z,19.20
2022-08-05T22:02:41.758Z,19.10
2022-08-05T22:05:11.077Z,19.00
2022-08-05T22:07:40.042Z,19.00
2022-08-05T22:10:26.935Z,18.90
2022-08-05T22:12:57.149Z,18.80
2022-08-05T22:16:02.491Z,18.70
2022-08-05T22:18:14.349Z,18.60
2022-08-05T22:20:41.916Z,18.60
2022-08-05T22:28:08.742Z,18.60
2022-08-05T22:30:35.728Z,18.60
2022-08-05T22:33:15.678Z,18.60
2022-08-05T22:35:48.976Z,18.50
2022-08-05T22:38:17.164Z,18.50
2022-08-05T22:40:49.842Z,18.50
2022-08-05T22:43:37.051Z,18.50
2022-08-05T22:46:13.501Z,18.50
2022-08-05T22:48:50.620Z,18.50
2022-08-05T22:51:23.274Z,18.40
2022-08-05T22:54:05.220Z,18.40
2022-08-05T22:56:32.310Z,18.40
2022-08-05T22:59:04.667Z,18.40
2022-08-05T23:02:04.337Z,18.40
2022-08-05T23:04:33.796Z,18.40
2022-08-05T23:07:01.054Z,18.30
2022-08-05T23:09:57.531Z,18.30
2022-08-05T23:12:17.981Z,18.30
2022-08-05T23:14:45.216Z,18.30
2022-08-05T23:17:34.624Z,18.30
2022-08-05T23:20:10.424Z,18.30
2022-08-05T23:22:47.563Z,18.30
2022-08-05T23:25:17.535Z,18.30
2022-08-05T23:28:07.047Z,18.20
2022-08-05T23:30:39.760Z,18.20
2022-08-05T23:33:16.461Z,18.20
2022-08-05T23:35:56.108Z,18.10
2022-08-05T23:38:26.183Z,18.10
2022-08-05T23:40:54.116Z,18.00
2022-08-05T23:43:25.572Z,18.00
2022-08-05T23:46:19.665Z,18.00
2022-08-05T23:49:00.440Z,18.00
2022-08-05T23:51:53.515Z,17.90
2022-08-05T23:54:30.234Z,17.80
2022-08-05T23:57:03.975Z,17.80
